Time;durP1;ratioP1;P1;durP2;ratioP2;P2;SDS_P1;SDS_P2;PMS_P1;PMS_P2;Temp;Humidity;BMP_temperature;BMP_pressure;BME280_temperature;BME280_humidity;BME280_pressure;Samples;Min_cycle;Max_cycle;Signal;HPM_P1;HPM_P2
2023/04/17 00:00:36;;;;;;;182.85;58.45;;;;;;;8.46;100.00;102647.19;5070403;28;20377;-44
2023/04/17 00:03:02;;;;;;;163.25;53.85;;;;;;;8.50;100.00;102648.63;5070265;28;20024;-46
2023/04/17 00:05:27;;;;;;;174.45;57.67;;;;;;;8.48;100.00;102649.75;5060629;28;20033;-46
2023/04/17 00:07:53;;;;;;;177.73;61.78;;;;;;;8.46;100.00;102652.56;5064948;28;20523;-46
2023/04/17 00:10:19;;;;;;;174.60;55.45;;;;;;;8.47;100.00;102651.56;5068971;28;20025;-45
2023/04/17 00:12:44;;;;;;;163.30;53.97;;;;;;;8.50;100.00;102658.53;5070427;28;20086;-45
2023/04/17 00:15:10;;;;;;;165.70;53.42;;;;;;;8.51;100.00;102661.09;5065486;28;20017;-45
2023/04/17 00:17:35;;;;;;;162.10;53.10;;;;;;;8.49;100.00;102663.03;5070369;28;20097;-44
2023/04/17 00:20:02;;;;;;;157.90;51.30;;;;;;;8.47;100.00;102654.25;5071102;28;20432;-43
2023/04/17 00:22:28;;;;;;;164.05;53.17;;;;;;;8.49;100.00;102667.56;5068761;28;20043;-44
2023/04/17 00:24:54;;;;;;;158.60;51.50;;;;;;;8.51;100.00;102655.72;5066929;28;20025;-45
2023/04/17 00:27:19;;;;;;;162.75;51.25;;;;;;;8.48;100.00;102666.72;5069780;28;20059;-44
2023/04/17 00:29:44;;;;;;;158.45;49.67;;;;;;;8.44;100.00;102665.25;5062836;28;20132;-44
2023/04/17 00:32:10;;;;;;;169.13;51.78;;;;;;;8.40;100.00;102660.22;5061989;28;20040;-47
2023/04/17 00:34:36;;;;;;;148.30;47.40;;;;;;;8.38;100.00;102659.50;5068490;28;20036;-46
2023/04/17 00:37:02;;;;;;;157.48;47.45;;;;;;;8.37;100.00;102658.63;5069604;28;20436;-46
2023/04/17 00:39:27;;;;;;;158.63;49.90;;;;;;;8.36;100.00;102664.97;5069312;28;20028;-42
2023/04/17 00:41:52;;;;;;;152.98;45.95;;;;;;;8.42;100.00;102672.53;5069810;28;20064;-45
2023/04/17 00:44:18;;;;;;;158.35;49.58;;;;;;;8.35;100.00;102658.75;5068211;28;20037;-45
2023/04/17 00:46:43;;;;;;;147.15;47.13;;;;;;;8.35;100.00;102657.91;5058339;28;20016;-44
2023/04/17 00:49:09;;;;;;;155.82;49.15;;;;;;;8.34;100.00;102658.88;5069661;28;20043;-46
2023/04/17 00:51:34;;;;;;;149.02;49.33;;;;;;;8.35;100.00;102657.91;5070176;28;20029;-46
2023/04/17 00:54:00;;;;;;;171.98;49.67;;;;;;;8.35;100.00;102660.59;5071058;28;20020;-47
2023/04/17 00:56:26;;;;;;;162.80;50.85;;;;;;;8.32;100.00;102658.13;5070164;28;20135;-46
2023/04/17 00:58:51;;;;;;;174.07;52.33;;;;;;;8.26;100.00;102656.78;5069206;28;20025;-44
2023/04/17 01:01:16;;;;;;;182.48;55.50;;;;;;;8.26;100.00;102661.31;5066646;28;20418;-48
2023/04/17 01:03:42;;;;;;;169.82;50.90;;;;;;;8.25;100.00;102654.25;5069376;28;20040;-44
2023/04/17 01:06:08;;;;;;;173.85;50.80;;;;;;;8.30;100.00;102660.09;5059087;28;20055;-45
2023/04/17 01:08:41;;;;;;;173.70;50.60;;;;;;;8.28;100.00;102664.72;5070920;28;20029;-44
2023/04/17 01:11:07;;;;;;;162.48;53.53;;;;;;;8.23;100.00;102661.56;5070300;28;20135;-47
2023/04/17 01:13:32;;;;;;;169.30;50.58;;;;;;;8.17;100.00;102662.06;5069379;28;20112;-47
2023/04/17 01:15:57;;;;;;;153.77;50.55;;;;;;;8.18;100.00;102669.13;5069750;28;20088;-45
2023/04/17 01:18:23;;;;;;;168.10;50.72;;;;;;;8.17;100.00;102668.28;5069801;28;20059;-46
2023/04/17 01:20:48;;;;;;;173.48;50.50;;;;;;;8.12;100.00;102671.31;5067946;28;20408;-45
2023/04/17 01:23:14;;;;;;;164.50;47.03;;;;;;;8.12;100.00;102671.31;5070219;28;20116;-45
2023/04/17 01:25:40;;;;;;;171.93;50.78;;;;;;;8.07;100.00;102673.50;5070988;28;20469;-45
2023/04/17 01:28:05;;;;;;;174.48;50.83;;;;;;;8.11;100.00;102666.94;5068040;28;20035;-44
2023/04/17 01:30:30;;;;;;;170.88;49.17;;;;;;;8.16;100.00;102666.53;5069226;28;20036;-44
2023/04/17 01:32:56;;;;;;;170.93;51.30;;;;;;;8.12;100.00;102663.25;5060906;28;20108;-45
2023/04/17 01:35:21;;;;;;;162.52;48.42;;;;;;;8.10;100.00;102667.03;5055041;28;20029;-45
2023/04/17 01:37:47;;;;;;;158.25;47.47;;;;;;;8.03;100.00;102661.31;5054456;28;20656;-46
2023/04/17 01:40:12;;;;;;;172.98;48.85;;;;;;;8.02;100.00;102664.97;5054436;28;20021;-43
2023/04/17 01:42:38;;;;;;;176.55;49.92;;;;;;;8.03;100.00;102671.16;5059049;28;20032;-44
2023/04/17 01:45:04;;;;;;;174.85;48.13;;;;;;;7.99;100.00;102659.84;5062254;28;20025;-45
2023/04/17 01:47:29;;;;;;;184.02;50.67;;;;;;;7.97;100.00;102664.47;5054177;28;20033;-44
2023/04/17 01:49:54;;;;;;;171.93;48.03;;;;;;;8.01;100.00;102668.63;5054178;28;20146;-46
2023/04/17 01:52:20;;;;;;;175.93;50.17;;;;;;;7.97;100.00;102671.66;5054073;28;20029;-46
2023/04/17 01:54:45;;;;;;;173.20;47.70;;;;;;;7.96;100.00;102675.31;5066424;28;20029;-44
2023/04/17 01:57:11;;;;;;;173.75;50.80;;;;;;;7.96;100.00;102676.16;5073952;28;20077;-43
2023/04/17 01:59:36;;;;;;;171.80;46.95;;;;;;;7.98;100.00;102684.97;5074183;28;20072;-44
2023/04/17 02:02:01;;;;;;;158.20;45.30;;;;;;;7.97;100.00;102672.50;5074051;28;20322;-44
2023/04/17 02:04:27;;;;;;;162.32;47.70;;;;;;;7.98;100.00;102679.59;5070264;28;20094;-44
2023/04/17 02:06:52;;;;;;;165.35;45.58;;;;;;;8.06;100.00;102671.81;5069224;28;20059;-45
2023/04/17 02:09:17;;;;;;;159.27;44.17;;;;;;;8.03;100.00;102668.47;5073588;28;20031;-45
2023/04/17 02:11:43;;;;;;;173.90;45.20;;;;;;;7.97;100.00;102677.03;5071426;28;20043;-45
2023/04/17 02:14:08;;;;;;;166.63;43.45;;;;;;;8.00;100.00;102669.56;5072699;28;20032;-44
2023/04/17 02:16:34;;;;;;;163.80;43.95;;;;;;;8.04;100.00;102676.41;5073019;28;20546;-44
2023/04/17 02:18:59;;;;;;;148.57;42.80;;;;;;;7.99;100.00;102670.56;5071451;28;20036;-44
2023/04/17 02:21:26;;;;;;;148.68;42.35;;;;;;;7.87;100.00;102677.75;5073030;28;20086;-48
2023/04/17 02:23:52;;;;;;;142.20;42.60;;;;;;;7.85;100.00;102685.06;5069031;28;20148;-44
2023/04/17 02:26:17;;;;;;;158.60;43.53;;;;;;;7.91;100.00;102676.53;5059101;28;20047;-43
2023/04/17 02:28:44;;;;;;;154.68;43.88;;;;;;;7.94;100.00;102678.13;5072946;28;20433;-44
2023/04/17 02:31:10;;;;;;;150.95;43.70;;;;;;;7.93;100.00;102681.78;5072715;28;20058;-44
2023/04/17 02:33:35;;;;;;;148.32;42.83;;;;;;;7.96;100.00;102670.81;5071298;28;20118;-45
2023/04/17 02:36:01;;;;;;;142.02;43.67;;;;;;;8.01;100.00;102674.00;5072210;28;20043;-48
2023/04/17 02:38:29;;;;;;;150.70;42.22;;;;;;;8.01;100.00;102673.13;5072733;28;20028;-45
2023/04/17 02:40:55;;;;;;;154.50;44.30;;;;;;;7.97;100.00;102666.28;5073046;28;20047;-45
2023/04/17 02:43:20;;;;;;;159.57;45.00;;;;;;;8.00;100.00;102666.91;5072675;28;20074;-45
2023/04/17 02:45:45;;;;;;;145.35;42.28;;;;;;;8.01;100.00;102663.25;5054849;28;20040;-45
2023/04/17 02:48:11;;;;;;;161.30;46.70;;;;;;;7.99;100.00;102665.19;5071286;28;20397;-44
2023/04/17 02:50:36;;;;;;;160.20;44.25;;;;;;;8.00;100.00;102664.22;5072503;28;20419;-45
2023/04/17 02:53:01;;;;;;;144.45;40.97;;;;;;;7.96;100.00;102670.81;5072220;28;20066;-45
2023/04/17 02:55:27;;;;;;;131.50;39.72;;;;;;;7.95;100.00;102660.19;5056323;28;20106;-44
2023/04/17 02:57:52;;;;;;;129.63;39.95;;;;;;;7.89;100.00;102669.56;5070554;28;20039;-45
2023/04/17 03:00:17;;;;;;;124.68;39.00;;;;;;;7.86;100.00;102664.47;5072540;28;20032;-46
2023/04/17 03:02:43;;;;;;;135.68;40.65;;;;;;;7.93;100.00;102665.69;5073053;28;20032;-44
2023/04/17 03:05:10;;;;;;;141.60;42.47;;;;;;;7.97;100.00;102669.81;5065942;28;20032;-45
2023/04/17 03:07:35;;;;;;;135.32;40.10;;;;;;;7.99;100.00;102667.03;5070499;28;20017;-45
2023/04/17 03:10:01;;;;;;;127.93;39.55;;;;;;;7.93;100.00;102671.06;5071388;28;20037;-44
2023/04/17 03:12:27;;;;;;;129.10;38.17;;;;;;;7.93;100.00;102672.88;5071182;28;20035;-43
2023/04/17 03:14:52;;;;;;;136.20;39.65;;;;;;;7.87;100.00;102671.50;5071017;28;20028;-46
2023/04/17 03:17:19;;;;;;;122.22;38.75;;;;;;;7.85;100.00;102666.28;5072313;28;20028;-44
2023/04/17 03:19:45;;;;;;;132.85;38.72;;;;;;;7.85;100.00;102670.81;5071323;28;20031;-45
2023/04/17 03:22:11;;;;;;;136.05;39.10;;;;;;;7.86;100.00;102669.81;5063626;28;20037;-47
2023/04/17 03:24:36;;;;;;;127.35;39.92;;;;;;;7.83;100.00;102670.91;5070221;28;20051;-43
2023/04/17 03:27:01;;;;;;;128.90;38.50;;;;;;;7.84;100.00;102671.75;5071541;28;20047;-45
2023/04/17 03:29:27;;;;;;;122.53;38.03;;;;;;;7.82;100.00;102671.00;5067995;28;20036;-44
2023/04/17 03:31:52;;;;;;;122.20;36.17;;;;;;;7.86;100.00;102675.19;5071717;28;20094;-44
2023/04/17 03:34:20;;;;;;;134.10;38.15;;;;;;;7.85;100.00;102679.69;5055405;28;20116;-45
2023/04/17 03:36:45;;;;;;;133.68;39.28;;;;;;;7.88;100.00;102679.44;5070774;28;20097;-45
2023/04/17 03:39:11;;;;;;;118.22;38.70;;;;;;;7.86;100.00;102681.38;5072030;28;20385;-46
2023/04/17 03:41:37;;;;;;;109.40;34.58;;;;;;;7.84;100.00;102682.47;5072201;28;20120;-47
2023/04/17 03:44:03;;;;;;;108.40;34.20;;;;;;;7.81;100.00;102686.25;5072275;28;20345;-46
2023/04/17 03:46:28;;;;;;;97.95;33.17;;;;;;;7.76;100.00;102674.19;5068846;28;20050;-43
2023/04/17 03:48:54;;;;;;;94.57;30.95;;;;;;;7.73;100.00;102679.78;5052043;28;20466;-44
2023/04/17 03:51:19;;;;;;;93.13;31.67;;;;;;;7.73;100.00;102677.09;5051984;28;20028;-44
2023/04/17 03:53:44;;;;;;;98.28;31.75;;;;;;;7.68;100.00;102675.63;5052000;28;20033;-44
2023/04/17 03:56:10;;;;;;;95.10;31.40;;;;;;;7.66;100.00;102672.22;5051713;28;20235;-45
2023/04/17 03:58:35;;;;;;;103.35;33.17;;;;;;;7.63;100.00;102675.13;5057711;28;20367;-45
2023/04/17 04:01:01;;;;;;;102.88;32.13;;;;;;;7.68;100.00;102678.28;5069915;28;20377;-45
2023/04/17 04:03:27;;;;;;;105.30;32.30;;;;;;;7.66;100.00;102674.91;5069781;28;20101;-45
2023/04/17 04:05:53;;;;;;;104.88;32.58;;;;;;;7.72;100.00;102678.94;5060859;28;20123;-44
2023/04/17 04:08:18;;;;;;;104.00;34.15;;;;;;;7.74;100.00;102684.16;5070738;28;20043;-46
2023/04/17 04:10:44;;;;;;;110.40;35.72;;;;;;;7.73;100.00;102686.00;5070876;28;20039;-45
2023/04/17 04:13:10;;;;;;;106.65;34.30;;;;;;;7.76;100.00;102682.22;5070794;28;20071;-45
2023/04/17 04:15:36;;;;;;;98.35;34.25;;;;;;;7.82;100.00;102684.41;5070089;28;20029;-45
2023/04/17 04:18:01;;;;;;;104.70;32.85;;;;;;;7.77;100.00;102687.47;5070814;28;20181;-47
2023/04/17 04:20:27;;;;;;;90.25;30.15;;;;;;;7.73;100.00;102690.50;5069183;28;20060;-45
2023/04/17 04:22:56;;;;;;;92.00;30.50;;;;;;;7.72;100.00;102683.44;5068318;28;20143;-45
2023/04/17 04:25:21;;;;;;;85.20;29.58;;;;;;;7.71;100.00;102687.94;5069569;28;20036;-45
2023/04/17 04:27:48;;;;;;;83.72;29.60;;;;;;;7.69;100.00;102681.84;5069053;28;20028;-43
2023/04/17 04:30:15;;;;;;;83.60;29.88;;;;;;;7.67;100.00;102681.13;5068960;28;20036;-45
2023/04/17 04:32:46;;;;;;;92.82;30.33;;;;;;;7.70;100.00;102681.72;5065894;28;20714;-45
2023/04/17 04:35:13;;;;;;;90.63;30.83;;;;;;;7.69;100.00;102674.66;5065312;28;20142;-46
2023/04/17 04:37:53;;;;;;;92.18;29.60;;;;;;;7.70;100.00;102680.88;5068483;28;20623;-45
2023/04/17 04:40:18;;;;;;;90.40;29.40;;;;;;;7.69;100.00;102684.53;5051476;28;20036;-43
2023/04/17 04:42:48;;;;;;;92.38;30.23;;;;;;;7.72;100.00;102689.66;5069228;28;20040;-44
2023/04/17 04:45:14;;;;;;;89.90;30.95;;;;;;;7.74;100.00;102692.19;5071076;28;20044;-45
2023/04/17 04:47:40;;;;;;;90.03;29.05;;;;;;;7.76;100.00;102690.25;5073323;28;20040;-45
2023/04/17 04:50:06;;;;;;;89.97;30.17;;;;;;;7.71;100.00;102685.25;5070255;28;20036;-43
2023/04/17 04:52:31;;;;;;;91.95;30.50;;;;;;;7.75;100.00;102684.06;5072570;28;20028;-44
2023/04/17 04:54:56;;;;;;;94.50;29.38;;;;;;;7.75;100.00;102686.72;5070836;28;20477;-45
2023/04/17 04:57:22;;;;;;;99.97;30.33;;;;;;;7.75;100.00;102683.22;5069122;28;20032;-44
2023/04/17 04:59:47;;;;;;;95.03;30.67;;;;;;;7.72;100.00;102686.13;5061843;28;20039;-44
2023/04/17 05:02:12;;;;;;;100.85;30.60;;;;;;;7.71;100.00;102693.28;5064899;28;20058;-45
2023/04/17 05:04:38;;;;;;;104.70;30.85;;;;;;;7.68;100.00;102698.88;5061259;28;20082;-46
2023/04/17 05:07:04;;;;;;;102.05;31.83;;;;;;;7.72;100.00;102697.69;5059132;28;20424;-44
2023/04/17 05:09:31;;;;;;;101.43;32.42;;;;;;;7.72;100.00;102696.84;5063432;28;20036;-45
2023/04/17 05:11:56;;;;;;;101.25;31.92;;;;;;;7.69;100.00;102706.81;5072631;28;20072;-44
2023/04/17 05:14:22;;;;;;;105.88;31.95;;;;;;;7.69;100.00;102701.47;5065485;28;20194;-43
2023/04/17 05:16:47;;;;;;;111.90;34.83;;;;;;;7.74;100.00;102719.00;5075961;28;20086;-44
2023/04/17 05:19:12;;;;;;;112.25;33.75;;;;;;;7.79;100.00;102722.19;5059440;28;20024;-46
2023/04/17 05:21:38;;;;;;;110.20;34.75;;;;;;;7.81;100.00;102725.59;5073239;28;20326;-44
2023/04/17 05:24:03;;;;;;;110.68;35.10;;;;;;;7.81;100.00;102721.09;5069597;28;20028;-43
2023/04/17 05:26:28;;;;;;;115.47;34.00;;;;;;;7.84;100.00;102725.38;5075204;28;20087;-45
2023/04/17 05:28:54;;;;;;;120.53;35.15;;;;;;;7.85;100.00;102724.41;5076780;28;20358;-45
2023/04/17 05:31:20;;;;;;;107.85;33.47;;;;;;;7.85;100.00;102721.72;5075586;28;20028;-45
2023/04/17 05:33:46;;;;;;;104.75;33.30;;;;;;;7.80;100.00;102726.59;5073158;28;20086;-44
2023/04/17 05:36:11;;;;;;;112.75;35.45;;;;;;;7.82;100.00;102716.59;5059180;28;20032;-45
2023/04/17 05:38:37;;;;;;;114.75;33.22;;;;;;;7.79;100.00;102722.19;5076847;28;20040;-47
2023/04/17 05:41:02;;;;;;;113.97;33.53;;;;;;;7.79;100.00;102727.53;5059255;28;20043;-45
2023/04/17 05:43:27;;;;;;;116.75;34.75;;;;;;;7.80;100.00;102718.56;5073948;28;20136;-44
2023/04/17 05:45:53;;;;;;;106.38;32.55;;;;;;;7.84;100.00;102720.00;5073379;28;20051;-46
2023/04/17 05:48:18;;;;;;;126.68;35.50;;;;;;;7.83;100.00;102723.66;5075951;28;20052;-45
2023/04/17 05:50:44;;;;;;;110.57;32.78;;;;;;;7.90;100.00;102719.56;5076794;28;20098;-45
2023/04/17 05:53:09;;;;;;;115.28;34.72;;;;;;;7.93;100.00;102727.34;5071247;28;20028;-45
2023/04/17 05:55:35;;;;;;;112.05;33.83;;;;;;;7.96;100.00;102726.25;5074184;28;20079;-46
2023/04/17 05:58:01;;;;;;;115.03;35.25;;;;;;;7.97;100.00;102720.78;5059607;28;20063;-46
2023/04/17 06:00:26;;;;;;;112.10;35.33;;;;;;;7.94;100.00;102726.38;5069840;28;20347;-47
2023/04/17 06:02:51;;;;;;;118.05;37.42;;;;;;;8.01;100.00;102729.44;5072276;28;20039;-49
2023/04/17 06:05:17;;;;;;;120.00;37.35;;;;;;;8.00;100.00;102725.03;5067336;28;20035;-45
2023/04/17 06:07:43;;;;;;;112.88;37.90;;;;;;;8.05;100.00;102728.22;5073290;28;20032;-44
2023/04/17 06:10:09;;;;;;;103.20;33.15;;;;;;;8.06;100.00;102730.78;5072625;28;20129;-45
2023/04/17 06:12:35;;;;;;;118.18;34.83;;;;;;;8.07;100.00;102729.81;5072337;28;20044;-46
2023/04/17 06:15:00;;;;;;;123.15;38.05;;;;;;;8.12;100.00;102734.81;5072638;28;20076;-45
2023/04/17 06:17:26;;;;;;;126.35;38.65;;;;;;;8.15;100.00;102731.91;5070451;28;20082;-44
2023/04/17 06:19:51;;;;;;;114.82;36.10;;;;;;;8.24;100.00;102727.63;5054347;28;20029;-45
2023/04/17 06:22:16;;;;;;;113.32;36.47;;;;;;;8.31;100.00;102735.09;5070750;28;20021;-44
2023/04/17 06:24:42;;;;;;;112.07;35.60;;;;;;;8.33;100.00;102732.28;5071583;28;20090;-46
2023/04/17 06:27:07;;;;;;;118.93;37.95;;;;;;;8.44;100.00;102737.69;5073027;28;20032;-44
2023/04/17 06:29:32;;;;;;;111.60;37.63;;;;;;;8.51;100.00;102727.34;5073401;28;20565;-43
2023/04/17 06:31:58;;;;;;;108.38;35.85;;;;;;;8.51;100.00;102730.88;5073023;28;20016;-45
2023/04/17 06:34:23;;;;;;;120.32;39.58;;;;;;;8.55;100.00;102726.94;5072825;28;20031;-46
2023/04/17 06:36:49;;;;;;;111.90;38.65;;;;;;;8.54;100.00;102735.97;5069581;28;20150;-45
2023/04/17 06:39:14;;;;;;;113.28;39.65;;;;;;;8.50;100.00;102739.03;5063594;28;20028;-46
2023/04/17 06:41:39;;;;;;;130.15;40.17;;;;;;;8.50;100.00;102737.19;5060657;28;20136;-45
2023/04/17 06:44:05;;;;;;;118.80;38.80;;;;;;;8.46;100.00;102733.06;5055160;28;20064;-48
2023/04/17 06:46:30;;;;;;;126.00;41.92;;;;;;;8.60;100.00;102742.69;5054778;28;20040;-45
2023/04/17 06:48:58;;;;;;;117.35;38.53;;;;;;;8.59;100.00;102742.81;5059134;28;20036;-46
2023/04/17 06:51:24;;;;;;;125.38;39.40;;;;;;;8.59;100.00;102737.47;5054784;28;20144;-47
2023/04/17 06:53:50;;;;;;;118.15;39.38;;;;;;;8.68;100.00;102747.44;5058702;28;21344;-45
2023/04/17 06:56:15;;;;;;;114.68;40.78;;;;;;;8.67;100.00;102746.59;5058043;28;20053;-43
2023/04/17 06:58:44;;;;;;;121.28;39.95;;;;;;;8.75;100.00;102746.84;5053769;28;20556;-43
2023/04/17 07:01:10;;;;;;;119.97;40.03;;;;;;;8.79;100.00;102740.25;5060409;28;20039;-45
2023/04/17 07:03:37;;;;;;;116.20;38.58;;;;;;;8.86;100.00;102750.50;5061014;28;20449;-45
2023/04/17 07:06:02;;;;;;;115.13;39.35;;;;;;;8.91;100.00;102749.13;5056889;28;20146;-43
2023/04/17 07:08:27;;;;;;;125.40;38.45;;;;;;;8.96;100.00;102763.03;5063391;28;20031;-45
2023/04/17 07:10:53;;;;;;;132.93;42.60;;;;;;;8.98;100.00;102762.94;5061106;28;20037;-46
2023/04/17 07:13:19;;;;;;;112.63;39.00;;;;;;;9.00;100.00;102759.16;5054449;28;20588;-43
2023/04/17 07:15:53;;;;;;;123.72;40.90;;;;;;;9.03;100.00;102763.41;5054177;28;20041;-45
2023/04/17 07:18:18;;;;;;;125.65;42.60;;;;;;;9.06;100.00;102762.28;5062142;28;20068;-45
2023/04/17 07:20:43;;;;;;;122.28;40.03;;;;;;;9.05;100.00;102765.97;5059566;28;20036;-46
2023/04/17 07:23:09;;;;;;;115.50;39.78;;;;;;;9.06;100.00;102767.66;5065195;28;20066;-46
2023/04/17 07:25:34;;;;;;;116.55;39.05;;;;;;;9.07;100.00;102762.16;5058856;28;20038;-43
2023/04/17 07:28:00;;;;;;;125.05;40.95;;;;;;;9.12;100.00;102757.28;5055837;28;20031;-46
2023/04/17 07:30:25;;;;;;;114.03;39.03;;;;;;;9.17;100.00;102754.22;5057076;28;20033;-46
2023/04/17 07:32:51;;;;;;;108.63;37.50;;;;;;;9.21;100.00;102756.50;5057848;28;20032;-43
2023/04/17 07:35:16;;;;;;;117.43;39.90;;;;;;;9.20;100.00;102765.56;5058292;28;20098;-46
2023/04/17 07:37:42;;;;;;;108.53;40.08;;;;;;;9.24;100.00;102760.78;5060378;28;20101;-45
2023/04/17 07:40:09;;;;;;;110.10;40.80;;;;;;;9.26;100.00;102761.50;5062056;28;20067;-45
2023/04/17 07:42:35;;;;;;;107.38;37.97;;;;;;;9.26;100.00;102772.25;5059467;28;20100;-46
2023/04/17 07:45:00;;;;;;;115.22;40.20;;;;;;;9.29;100.00;102768.47;5063351;28;20132;-48
2023/04/17 07:47:26;;;;;;;106.57;38.83;;;;;;;9.31;100.00;102761.13;5062065;28;20421;-44
2023/04/17 07:49:51;;;;;;;105.78;39.08;;;;;;;9.34;100.00;102760.88;5061024;28;20040;-45
2023/04/17 07:52:16;;;;;;;99.30;37.13;;;;;;;9.32;100.00;102758.34;5062646;28;20064;-44
2023/04/17 07:54:43;;;;;;;117.75;41.42;;;;;;;9.35;100.00;102763.44;5065514;28;20029;-44
2023/04/17 07:57:08;;;;;;;110.57;42.08;;;;;;;9.42;100.00;102767.31;5064989;28;20056;-46
2023/04/17 07:59:35;;;;;;;111.97;40.05;;;;;;;9.49;100.00;102764.16;5063937;28;20020;-44
2023/04/17 08:02:01;;;;;;;111.83;40.67;;;;;;;9.51;100.00;102772.94;5062153;28;20083;-46
2023/04/17 08:04:26;;;;;;;115.80;41.13;;;;;;;9.56;100.00;102765.34;5061039;28;20056;-46
2023/04/17 08:06:51;;;;;;;117.13;42.53;;;;;;;9.63;100.00;102766.50;5059537;28;20111;-48
2023/04/17 08:09:17;;;;;;;111.65;39.28;;;;;;;9.66;100.00;102763.56;5062541;28;20040;-45
2023/04/17 08:11:44;;;;;;;115.30;40.13;;;;;;;9.71;100.00;102760.50;5059265;28;20044;-46
2023/04/17 08:14:10;;;;;;;118.13;38.70;;;;;;;9.72;100.00;102759.53;5054051;28;20453;-45
2023/04/17 08:16:36;;;;;;;108.43;39.25;;;;;;;9.71;100.00;102758.66;5068811;28;20060;-43
2023/04/17 08:19:01;;;;;;;111.68;39.17;;;;;;;9.71;100.00;102764.03;5062297;28;20063;-46
2023/04/17 08:21:26;;;;;;;127.25;40.83;;;;;;;9.67;100.00;102766.13;5059324;28;20465;-45
2023/04/17 08:23:52;;;;;;;127.07;41.38;;;;;;;9.64;100.00;102762.88;5058887;28;20075;-48
2023/04/17 08:26:19;;;;;;;126.47;43.05;;;;;;;9.71;100.00;102764.03;5059989;28;20082;-47
2023/04/17 08:28:45;;;;;;;120.50;44.00;;;;;;;9.80;100.00;102767.81;5067982;28;20109;-45
2023/04/17 08:31:10;;;;;;;117.25;42.10;;;;;;;9.88;100.00;102758.09;5061722;28;20036;-44
2023/04/17 08:33:36;;;;;;;103.45;39.85;;;;;;;10.00;100.00;102752.63;5054731;28;20030;-46
2023/04/17 08:36:01;;;;;;;114.90;43.85;;;;;;;10.06;100.00;102757.53;5056488;28;20036;-44
2023/04/17 08:38:28;;;;;;;117.32;41.70;;;;;;;10.14;100.00;102760.41;5055322;28;20421;-46
2023/04/17 08:40:57;;;;;;;114.10;42.42;;;;;;;10.25;100.00;102759.47;5052430;28;20056;-43
2023/04/17 08:43:27;;;;;;;123.60;42.05;;;;;;;10.40;100.00;102751.91;5053495;28;20029;-45
2023/04/17 08:45:54;;;;;;;127.22;43.13;;;;;;;10.56;100.00;102749.59;5061589;28;20020;-47
2023/04/17 08:48:20;;;;;;;125.97;44.33;;;;;;;10.66;100.00;102750.47;5063533;28;20033;-46
2023/04/17 08:50:47;;;;;;;131.35;43.78;;;;;;;10.78;100.00;102756.63;5055881;28;20036;-43
2023/04/17 08:53:13;;;;;;;124.88;42.92;;;;;;;10.87;100.00;102753.09;5061635;28;20036;-42
2023/04/17 08:55:38;;;;;;;113.60;44.05;;;;;;;10.91;100.00;102761.78;5056375;28;20045;-43
2023/04/17 08:58:04;;;;;;;112.32;41.67;;;;;;;10.88;100.00;102748.59;5061429;28;20032;-44
2023/04/17 09:00:37;;;;;;;110.57;41.72;;;;;;;10.87;100.00;102753.09;5051679;28;20024;-44
2023/04/17 09:03:04;;;;;;;108.93;39.92;;;;;;;11.00;100.00;102763.63;5063339;28;20040;-45
2023/04/17 09:05:32;;;;;;;109.18;41.25;;;;;;;11.04;100.00;102757.00;5055908;28;20025;-43
2023/04/17 09:08:19;;;;;;;112.55;43.22;;;;;;;11.02;100.00;102760.81;5055044;28;20021;-46
2023/04/17 09:10:52;;;;;;;112.68;41.25;;;;;;;10.97;100.00;102753.13;5055584;28;20052;-45
2023/04/17 09:13:19;;;;;;;115.47;42.50;;;;;;;11.09;100.00;102760.13;5059268;28;20580;-44
2023/04/17 09:15:46;;;;;;;105.23;40.00;;;;;;;11.29;100.00;102752.91;5061885;28;20047;-43
2023/04/17 09:18:25;;;;;;;113.50;42.45;;;;;;;11.55;100.00;102753.22;5050858;28;20278;-44
2023/04/17 09:20:51;;;;;;;111.43;43.03;;;;;;;11.68;100.00;102761.03;5064324;28;20036;-45
2023/04/17 09:23:16;;;;;;;119.18;44.88;;;;;;;11.80;100.00;102764.44;5056983;28;20128;-45
2023/04/17 09:25:42;;;;;;;109.03;41.17;;;;;;;11.77;100.00;102768.28;5054701;28;20061;-44
2023/04/17 09:28:13;;;;;;;105.32;41.60;;;;;;;11.78;100.00;102769.13;5052690;28;20064;-44
2023/04/17 09:30:39;;;;;;;104.50;39.70;;;;;;;11.98;100.00;102768.16;5061181;28;20040;-44
2023/04/17 09:33:06;;;;;;;101.68;41.13;;;;;;;11.88;100.00;102764.59;5055249;28;20033;-44
2023/04/17 09:35:32;;;;;;;102.50;39.20;;;;;;;11.94;100.00;102764.03;5055552;28;20516;-46
2023/04/17 09:37:58;;;;;;;104.45;40.97;;;;;;;12.03;100.00;102773.97;5063647;28;20028;-45
2023/04/17 09:40:24;;;;;;;95.05;37.92;;;;;;;12.07;100.00;102769.13;5059943;28;20029;-47
2023/04/17 09:43:06;;;;;;;98.72;38.42;;;;;;;11.92;100.00;102771.41;5055770;28;20033;-46
2023/04/17 09:45:34;;;;;;;98.68;38.03;;;;;;;11.75;100.00;102774.81;5056027;28;20032;-44
2023/04/17 09:48:09;;;;;;;100.65;39.95;;;;;;;11.56;100.00;102773.81;5057956;28;20032;-44
2023/04/17 09:50:35;;;;;;;101.38;36.88;;;;;;;11.39;100.00;102771.81;5054918;28;20109;-45
2023/04/17 09:53:05;;;;;;;100.65;40.17;;;;;;;11.23;100.00;102777.72;5060209;28;20072;-44
2023/04/17 09:55:32;;;;;;;103.53;40.35;;;;;;;11.18;100.00;102786.22;5058905;28;20053;-45
2023/04/17 09:57:59;;;;;;;96.63;39.35;;;;;;;11.17;100.00;102791.78;5067192;28;20500;-45
2023/04/17 10:00:26;;;;;;;106.07;39.97;;;;;;;11.38;100.00;102786.28;5059242;28;20068;-45
2023/04/17 10:02:52;;;;;;;101.13;40.50;;;;;;;11.63;100.00;102788.41;5064808;28;20123;-45
2023/04/17 10:05:19;;;;;;;104.30;39.88;;;;;;;11.82;100.00;102787.59;5055513;28;20105;-46
2023/04/17 10:07:44;;;;;;;98.88;39.45;;;;;;;11.86;100.00;102789.03;5061011;28;20043;-47
2023/04/17 10:10:11;;;;;;;99.85;38.65;;;;;;;11.99;100.00;102788.72;5060874;28;20092;-46
2023/04/17 10:12:38;;;;;;;101.88;41.58;;;;;;;12.03;100.00;102784.75;5064593;28;20032;-45
2023/04/17 10:15:06;;;;;;;109.60;40.50;;;;;;;12.39;100.00;102779.56;5061260;28;20521;-45
2023/04/17 10:17:32;;;;;;;105.65;38.65;;;;;;;13.01;100.00;102779.03;5056355;28;20044;-46
2023/04/17 10:20:16;;;;;;;94.68;38.13;;;;;;;13.39;100.00;102770.69;5058187;28;20029;-46
2023/04/17 10:22:43;;;;;;;89.22;37.08;;;;;;;13.31;100.00;102758.94;5063460;28;20158;-47
2023/04/17 10:25:11;;;;;;;95.38;37.85;;;;;;;13.23;100.00;102770.50;5061828;28;20166;-44
2023/04/17 10:27:37;;;;;;;96.15;37.67;;;;;;;13.14;100.00;102766.84;5060053;28;20043;-43
2023/04/17 10:30:04;;;;;;;89.40;37.65;;;;;;;13.01;100.00;102770.94;5062599;28;20041;-44
2023/04/17 10:32:30;;;;;;;88.22;37.03;;;;;;;12.95;100.00;102770.53;5067299;28;20049;-45
2023/04/17 10:34:58;;;;;;;86.88;38.25;;;;;;;12.80;100.00;102773.88;5046727;28;20028;-46
2023/04/17 10:37:51;;;;;;;88.70;38.50;;;;;;;12.76;100.00;102769.75;5066810;28;20029;-43
2023/04/17 10:40:21;;;;;;;87.45;38.55;;;;;;;13.22;100.00;102771.50;5056256;28;20126;-46
2023/04/17 10:43:05;;;;;;;94.15;38.72;;;;;;;13.50;100.00;102760.66;5061362;28;20032;-43
2023/04/17 10:46:01;;;;;;;97.20;40.63;;;;;;;13.52;100.00;102772.19;5061598;28;20654;-42
2023/04/17 10:48:28;;;;;;;93.63;40.53;;;;;;;13.69;100.00;102779.47;5062903;28;20124;-44
2023/04/17 10:50:56;;;;;;;90.57;39.45;;;;;;;14.23;100.00;102772.09;5059247;28;20054;-46
2023/04/17 10:53:44;;;;;;;96.30;39.03;;;;;;;15.55;100.00;102757.22;5060886;28;20182;-45
2023/04/17 10:56:11;;;;;;;90.82;36.70;;;;;;;16.00;100.00;102759.44;5057879;28;20800;-45
2023/04/17 10:58:38;;;;;;;91.72;38.42;;;;;;;16.39;100.00;102756.00;5062928;28;20028;-44